Lionhead Wind

Lionhead weather stationLocated on Lionhead Ridge near West Yellowstone. Use the nearest SNOTEL station for snow depth data: Madison Plateau. The data on this page is also available to view at dataGarrison.com.

Elevation
9420ft
Jump to table bottom
Date Time Temperature
deg F
RH, % Wind Speed Wind Gust Wind Direction Pressure Light
02/02/23 21:00 12.6 96 24 34 SW - 212 722.200 0
02/02/23 20:00 12.4 94 25 37 SW - 215 722.340 0
02/02/23 19:00 11.8 95 26 36 SW - 220 722.020 0
02/02/23 18:00 10.8 95 23 31 SW - 229 722.240 0
02/02/23 17:00 12.1 96 22 28 SW - 226 722.520 0
02/02/23 16:00 13.3 96 24 29 SW - 227 722.140 0
02/02/23 15:00 13.8 96 20 25 SW - 230 722.000 0
02/02/23 14:00 13.2 96 20 25 SW - 240 721.500 0
02/02/23 13:00 12.1 95 20 25 SW - 227 721.680 0
02/02/23 12:00 10.7 96 22 29 SW - 223 721.760 0
02/02/23 11:00 8.6 96 21 27 SW - 220 721.920 0
02/02/23 10:00 8.4 95 19 25 SW - 229 721.400 0
02/02/23 09:00 9.1 95 20 25 SW - 225 721.320 0
02/02/23 08:00 8.9 95 20 27 SW - 218 720.800 0
02/02/23 07:00 6.9 95 21 28 SW - 222 720.460 0
02/02/23 06:00 6.6 95 23 31 SW - 223 720.300 0
02/02/23 05:00 7.2 96 23 31 SW - 223 719.840 0
02/02/23 04:00 6.6 95 21 27 SW - 223 719.820 0
02/02/23 03:00 6.6 95 20 28 SW - 220 719.540 0
02/02/23 02:00 6.8 95 21 26 SW - 225 719.480 0
02/02/23 01:00 6.0 95 22 32 SW - 222 718.940 0
02/02/23 00:00 6.1 95 19 28 SW - 216 719.020 0
02/01/23 23:00 5.8 95 22 29 SW - 223 718.420 0
02/01/23 22:00 5.0 95 22 29 SW - 220 718.340 0
02/01/23 21:00 4.9 95 17 22 SW - 227 718.280 0
02/01/23 20:00 4.4 94 17 22 SW - 232 718.360 0
02/01/23 19:00 3.5 94 16 21 SW - 229 718.160 0
02/01/23 18:00 2.6 94 16 21 SW - 234 717.960 0
02/01/23 17:00 7.3 95 8 19 W - 254 717.540 0
02/01/23 16:00 3.4 94 17 24 SW - 229 717.300 0
02/01/23 15:00 3.7 94 28 35 SW - 229 716.320 0
02/01/23 14:00 2.0 93 26 35 SW - 234 715.500 0
02/01/23 13:00 2.7 94 18 31 SW - 239 716.120 0
02/01/23 12:00 5.2 94 20 34 SW - 241 716.560 0
02/01/23 11:00 0.3 93 23 29 SW - 212 716.080 0
02/01/23 10:00 3.6 94 26 40 SW - 223 715.860 0
02/01/23 09:00 -2.4 92 29 35 SW - 218 715.260 0
02/01/23 08:00 -3.8 91 26 33 SW - 205 715.100 0
02/01/23 07:00 -4.5 91 27 31 SW - 211 715.000 0
02/01/23 06:00 -4.7 91 26 35 SW - 218 714.380 0
02/01/23 05:00 -5.0 91 20 27 SW - 208 714.800 0
02/01/23 04:00 -4.7 91 19 25 SW - 215 714.820 0
02/01/23 03:00 -4.7 91 22 31 SW - 213 714.660 0
02/01/23 02:00 -5.6 91 27 39 SW - 215 714.140 0
02/01/23 01:00 -5.7 91 27 38 SW - 220 713.720 0
02/01/23 00:00 -5.8 91 24 35 SW - 219 714.640 0
01/31/23 23:00 -7.2 90 28 37 SW - 225 714.080 0
01/31/23 22:00 -7.5 90 27 40 SW - 213 712.920 0
01/31/23 21:00 -8.2 90 24 34 SW - 220 713.800 0
01/31/23 20:00 -8.9 90 21 28 SW - 223 713.520 0